Aeroporto :
LOGIN :

Iscrizione | Disclaimer

   EN    FR    IT 

 










Sommario :    VFR   VFR Marginale   IFR   IFR Intensivo   IFR Molto Intensivo
Visibilità : 
Base nubi : 
>= 8 km
>= 3000ft
5 / 8 km
1000 / 3000 ft
1500m / 5 km
500 / 1000 ft
800 / 1500m
200 / 500 ft
< 800m
< 200 ft
Simboli :   Temporali  Nebbia  Neve Forte  Precipitazioni Forti  Vento > 20 kt
SIGMETs :   Varie  Temporali  Ghiacco  Turbolenza  Onda orograficha  Ceneri Vulcaniche






- Altitudine del aeroporto : 1046 ft
- Codice IATA : NUE


EDDN - Nuremberg

ULTIMO METAR :
  • 122050Z 14003KT 110V170 9999 FEW040 04/01 Q1004 NOSIG

METARs OBSOLETI :
  • 122020Z 16004KT CAVOK 04/02 Q1005 NOSIG
  • 121950Z 14006KT CAVOK 04/02 Q1005 NOSIG
  • 121920Z 13006KT CAVOK 04/02 Q1005 NOSIG
  • 121850Z 12008KT CAVOK 04/02 Q1005 NOSIG
  • 121820Z 13005KT CAVOK 04/01 Q1005 NOSIG

TAF TAF EDDN
Valido dal 12 a 18 ore il 13 a 18 ore UTC


121700Z 1218/1318 13006KT 9999 BKN035
BECMG 1301/1303 21004KT



MetMap, La meteo Aeronautica in un colpo d'occhio ! - Copyright ORBIFLY Dicembre 2007 - Disclaimer

ORBIFLY MET'MAP TEAM :

Programmazione e sviluppo : Alexandra Zaïnal
Concezione e sviluppo : Baudouin d'Aumeries
Co-Programmazione e sviluppo : Marc-Olivier Méhu
Supporto tecnico e logistico : Manuel Goepfert
Aiuto per la traduzione : Arnaldo La Scala

Contatto : metmap@orbifly.com




FONTI E CREDITI :

   NOAA